< < Back
Terminal Aerodrome Forecast


Current Version              Previous Versions:   1  2  3  4  5  6  7  8  9  

Terminal Aerodrome Forecast

353
FTUS44 KMOB 181800 RRA
TAFPNS
TAF
KPNS 181807Z 1818/1918 15006KT P6SM FEW040
     FM190000 VRB02KT P6SM FEW040 BKN180
     FM190900 01002KT P6SM OVC250
     FM191500 10005KT P6SM FEW250=



Latest METAR

825
SAUS70 KWBC 190700 RRA
MTRPNS
METAR KPNS 190653Z AUTO 36003KT 10SM BKN100 23/22 A2992 RMK AO2 SLP134
T02330222


USA.gov is the U.S. government's official web portal to all federal, state and local government web resources and services.